Pequabuck, CT (06781)

12:54 AM EDT on September 18, 2014 (GMT -0400)
Near Terryville Fairground | Change Station
CLOSE
Current Station
Personal Weather Station
Location: Terryville, CT
Elevation: 820 ft
Nearby Weather Stations

Elev 820 ft 41.68 °N, 73.03 °W | Updated 4 minutes ago

Clear
Clear
48.4 °F
Feels Like 48 °F
N
0.0
Wind Variable Wind from West

Today
High -- | Low -- °F
--% Chance of Precip.
Yesterday
High -- | Low -- °F
Precip. -- in
6:35 AM 6:56 PM
Waning Crescent, 30% visible
Pressure 29.99 in
Visibility 10.0 miles
Clouds Clear
Windchill 48 °F
Dew Point 48 °F
Humidity 98%
Rainfall 0.00 in
Snow Depth Not available.
UV 0 out of 12
Pollen 3.00 out of 12
Ozone Good
PM2.5 Good
Flu Activity Not available.
METAR KOXC 180435Z 00000KT 10SM CLR 08/05 A2999 RMK AO1

More Conditions Fewer Conditions

Pressure 29.99 in
Visibility 10.0 miles
Clouds Clear
Windchill 48 °F
Dew Point 48 °F
Humidity 98%
Rainfall 0.00 in
Snow Depth Not available.
UV 0 out of 12
Pollen 3.00 out of 12
Ozone Good
PM2.5 Good
Flu Activity Not available.
METAR KOXC 180435Z 00000KT 10SM CLR 08/05 A2999 RMK AO1

More Conditions Fewer Conditions

10-Day Weather Forecast

Almanac

Astronomy

Sep. 18, 2014 Rise Set
Actual Time 6:35 AM EDT 6:56 PM EDT
Civil Twilight 6:07 AM EDT 7:24 PM EDT
Nautical Twilight 5:34 AM EDT 7:56 PM EDT
Astronomical Twilight 5:01 AM EDT 8:30 PM EDT
Moon 1:21 AM EDT 3:48 PM EDT
Length of Visible Light 13h 16m
Length of Day
12h 20m
Tomorrow will be 2m 47s shorter.
Waning Crescent, 30% of the Moon is Illuminated
Today
Waning Crescent
Sep 24
New
Oct 1
First Quarter
Oct 8
Full
Oct 15
Last Quarter

Today's Extremes

State Highs State Lows

Community

WunderPhotos

Upload Photos

1,754,295 photos uploaded!

Nearby

Air Quality

  Air Quality AQ Index Pollutant
Yesterday Good
PM10
Yesterday Good
OZONE
Current Good
OZONE
Current Good
PM2.5
Wednesday Good
OZONE
Thursday Good
OZONE
Thursday Good
PM2.5

Snow Depth

Station Depth Elevation
No new snow has been reported.

Earthquake Activity

City Distance Mag. Time & Date
No recent earthquake activity has been reported nearby.
Minimum magnitude displayed is 2.5.

Coastal Water Temperatures

Place Temperature
Kings Point, NY 69.1 °F
Bridgeport, CT 69.1 °F

Nearby Weather Stations